sensor_id;sensor_type;location;lat;lon;timestamp;pressure;altitude;pressure_sealevel;temperature;humidity
55347;BME280;41218;55.700;38.270;2024-03-23T00:58:32;98938.81;;;1.20;62.21
55347;BME280;41218;55.700;38.270;2024-03-23T01:03:50;98916.72;;;1.13;62.48
55347;BME280;41218;55.700;38.270;2024-03-23T01:08:53;98882.72;;;0.98;62.37
55347;BME280;41218;55.700;38.270;2024-03-23T01:14:02;98916.50;;;1.27;62.11
55347;BME280;41218;55.700;38.270;2024-03-23T01:19:05;98913.16;;;1.30;62.23
55347;BME280;41218;55.700;38.270;2024-03-23T01:24:11;98891.41;;;1.22;62.23
55347;BME280;41218;55.700;38.270;2024-03-23T01:29:19;98848.13;;;0.99;62.38
55347;BME280;41218;55.700;38.270;2024-03-23T01:34:42;98862.75;;;1.15;62.35
55347;BME280;41218;55.700;38.270;2024-03-23T01:39:51;98874.28;;;1.21;63.11
55347;BME280;41218;55.700;38.270;2024-03-23T01:45:16;98838.78;;;1.09;63.28
55347;BME280;41218;55.700;38.270;2024-03-23T01:50:21;98868.25;;;1.36;63.17
55347;BME280;41218;55.700;38.270;2024-03-23T01:55:40;98839.34;;;1.23;63.27
55347;BME280;41218;55.700;38.270;2024-03-23T02:00:59;98818.91;;;1.17;63.60
55347;BME280;41218;55.700;38.270;2024-03-23T02:06:17;98851.53;;;1.47;63.63
55347;BME280;41218;55.700;38.270;2024-03-23T02:11:22;98825.03;;;1.35;63.54
55347;BME280;41218;55.700;38.270;2024-03-23T02:16:33;98811.72;;;1.33;63.64
55347;BME280;41218;55.700;38.270;2024-03-23T02:21:34;98773.88;;;1.19;63.49
55347;BME280;41218;55.700;38.270;2024-03-23T02:26:35;98809.75;;;1.43;63.85
55347;BME280;41218;55.700;38.270;2024-03-23T02:31:59;98794.22;;;1.43;63.95
55347;BME280;41218;55.700;38.270;2024-03-23T02:37:22;98773.28;;;1.35;63.66
55347;BME280;41218;55.700;38.270;2024-03-23T02:42:35;98771.16;;;1.40;63.91
55347;BME280;41218;55.700;38.270;2024-03-23T02:47:43;98760.94;;;1.37;63.95
55347;BME280;41218;55.700;38.270;2024-03-23T02:52:56;98750.41;;;1.36;64.29
55347;BME280;41218;55.700;38.270;2024-03-23T02:57:56;98769.44;;;1.57;64.40
55347;BME280;41218;55.700;38.270;2024-03-23T03:03:02;98774.66;;;1.62;64.58
55347;BME280;41218;55.700;38.270;2024-03-23T03:08:06;98750.38;;;1.57;64.87
55347;BME280;41218;55.700;38.270;2024-03-23T03:13:22;98716.38;;;1.42;65.24
55347;BME280;41218;55.700;38.270;2024-03-23T03:18:59;98696.50;;;1.42;65.91
55347;BME280;41218;55.700;38.270;2024-03-23T03:24:31;98723.16;;;1.69;65.71
55347;BME280;41218;55.700;38.270;2024-03-23T03:29:34;98694.75;;;1.58;65.62
55347;BME280;41218;55.700;38.270;2024-03-23T03:34:40;98696.38;;;1.71;66.10
55347;BME280;41218;55.700;38.270;2024-03-23T03:39:55;98658.78;;;1.52;67.42
55347;BME280;41218;55.700;38.270;2024-03-23T03:45:10;98678.22;;;1.63;66.37
55347;BME280;41218;55.700;38.270;2024-03-23T03:50:13;98663.34;;;1.60;66.31
55347;BME280;41218;55.700;38.270;2024-03-23T03:55:17;98673.00;;;1.70;66.32
55347;BME280;41218;55.700;38.270;2024-03-23T04:00:35;98657.47;;;1.71;66.95
55347;BME280;41218;55.700;38.270;2024-03-23T04:05:40;98598.63;;;1.45;66.58
55347;BME280;41218;55.700;38.270;2024-03-23T04:10:53;98634.50;;;1.72;66.74
55347;BME280;41218;55.700;38.270;2024-03-23T04:16:07;98645.88;;;1.86;67.23
55347;BME280;41218;55.700;38.270;2024-03-23T04:21:20;98629.53;;;1.86;67.10
55347;BME280;41218;55.700;38.270;2024-03-23T04:26:43;98621.50;;;1.90;67.47
55347;BME280;41218;55.700;38.270;2024-03-23T04:31:44;98551.09;;;1.55;67.01
55347;BME280;41218;55.700;38.270;2024-03-23T04:36:50;98582.31;;;1.82;67.17
55347;BME280;41218;55.700;38.270;2024-03-23T04:42:03;98612.41;;;2.10;67.23
55347;BME280;41218;55.700;38.270;2024-03-23T04:47:08;98595.94;;;2.07;67.08
55347;BME280;41218;55.700;38.270;2024-03-23T04:52:20;98540.09;;;1.76;67.90
55347;BME280;41218;55.700;38.270;2024-03-23T05:03:32;98567.41;;;2.16;68.19
55347;BME280;41218;55.700;38.270;2024-03-23T05:08:35;98531.66;;;2.06;67.61
55347;BME280;41218;55.700;38.270;2024-03-23T05:13:55;98562.97;;;2.36;68.41
55347;BME280;41218;55.700;38.270;2024-03-23T05:19:07;98535.06;;;2.27;67.82
55347;BME280;41218;55.700;38.270;2024-03-23T05:24:29;98521.16;;;2.32;68.39
55347;BME280;41218;55.700;38.270;2024-03-23T05:29:34;98545.88;;;2.52;68.33
55347;BME280;41218;55.700;38.270;2024-03-23T05:34:40;98520.78;;;2.46;67.81
55347;BME280;41218;55.700;38.270;2024-03-23T05:39:53;98497.38;;;2.45;67.68
55347;BME280;41218;55.700;38.270;2024-03-23T05:45:04;98496.88;;;2.55;67.77
55347;BME280;41218;55.700;38.270;2024-03-23T05:50:21;98535.97;;;2.88;68.22
55347;BME280;41218;55.700;38.270;2024-03-23T05:55:26;98501.81;;;2.78;67.77
55347;BME280;41218;55.700;38.270;2024-03-23T06:00:47;98512.72;;;2.94;68.09
55347;BME280;41218;55.700;38.270;2024-03-23T06:06:01;98463.84;;;2.73;68.02
55347;BME280;41218;55.700;38.270;2024-03-23T06:11:17;98488.59;;;2.96;67.86
55347;BME280;41218;55.700;38.270;2024-03-23T06:16:23;98496.91;;;3.15;68.15
55347;BME280;41218;55.700;38.270;2024-03-23T06:21:44;98498.53;;;3.16;68.39
55347;BME280;41218;55.700;38.270;2024-03-23T06:26:53;98502.19;;;3.24;68.42
55347;BME280;41218;55.700;38.270;2024-03-23T06:31:54;98472.25;;;3.12;68.35
55347;BME280;41218;55.700;38.270;2024-03-23T06:37:09;98431.13;;;2.89;68.36
55347;BME280;41218;55.700;38.270;2024-03-23T06:42:25;98485.22;;;3.31;68.80
55347;BME280;41218;55.700;38.270;2024-03-23T06:47:46;98483.28;;;3.31;68.73
55347;BME280;41218;55.700;38.270;2024-03-23T06:53:01;98408.66;;;2.95;68.92
55347;BME280;41218;55.700;38.270;2024-03-23T06:58:11;98464.25;;;3.35;68.83
55347;BME280;41218;55.700;38.270;2024-03-23T07:03:16;98451.03;;;3.37;68.70
55347;BME280;41218;55.700;38.270;2024-03-23T07:09:15;98455.88;;;3.44;69.57
55347;BME280;41218;55.700;38.270;2024-03-23T07:14:26;98392.63;;;3.10;69.60
55347;BME280;41218;55.700;38.270;2024-03-23T07:19:27;98434.53;;;3.49;69.53
55347;BME280;41218;55.700;38.270;2024-03-23T07:24:36;98426.00;;;3.51;69.56
55347;BME280;41218;55.700;38.270;2024-03-23T07:29:49;98389.44;;;3.39;69.53
55347;BME280;41218;55.700;38.270;2024-03-23T07:35:08;98418.47;;;3.64;70.03
55347;BME280;41218;55.700;38.270;2024-03-23T07:40:16;98433.53;;;3.73;70.41
55347;BME280;41218;55.700;38.270;2024-03-23T07:45:30;98379.56;;;3.51;69.77
55347;BME280;41218;55.700;38.270;2024-03-23T07:50:36;98420.38;;;3.79;70.00
55347;BME280;41218;55.700;38.270;2024-03-23T07:56:02;98346.44;;;3.36;70.82
55347;BME280;41218;55.700;38.270;2024-03-23T08:01:11;98394.97;;;3.78;70.50
55347;BME280;41218;55.700;38.270;2024-03-23T08:06:16;98387.13;;;3.77;70.84
55347;BME280;41218;55.700;38.270;2024-03-23T08:11:31;98381.03;;;3.84;70.41
55347;BME280;41218;55.700;38.270;2024-03-23T08:16:37;98402.25;;;3.90;70.69
55347;BME280;41218;55.700;38.270;2024-03-23T08:21:51;98378.38;;;3.87;70.23
55347;BME280;41218;55.700;38.270;2024-03-23T08:27:04;98361.03;;;3.79;70.29
55347;BME280;41218;55.700;38.270;2024-03-23T08:32:17;98350.16;;;3.83;70.75
55347;BME280;41218;55.700;38.270;2024-03-23T08:37:21;98386.34;;;4.15;70.69
55347;BME280;41218;55.700;38.270;2024-03-23T08:43:00;98344.94;;;3.94;71.43
55347;BME280;41218;55.700;38.270;2024-03-23T08:48:16;98340.25;;;3.94;70.90
55347;BME280;41218;55.700;38.270;2024-03-23T08:53:19;98331.63;;;3.92;71.22
55347;BME280;41218;55.700;38.270;2024-03-23T08:58:40;98332.25;;;4.05;70.83
55347;BME280;41218;55.700;38.270;2024-03-23T09:04:03;98320.88;;;4.03;71.30
55347;BME280;41218;55.700;38.270;2024-03-23T09:09:29;98321.31;;;4.05;70.89
55347;BME280;41218;55.700;38.270;2024-03-23T09:15:04;98286.72;;;3.93;70.94
55347;BME280;41218;55.700;38.270;2024-03-23T09:20:15;98351.50;;;4.32;70.98
55347;BME280;41218;55.700;38.270;2024-03-23T09:25:19;98305.84;;;4.13;70.95
55347;BME280;41218;55.700;38.270;2024-03-23T09:30:35;98308.56;;;4.13;70.88
55347;BME280;41218;55.700;38.270;2024-03-23T09:35:51;98341.91;;;4.41;71.09
55347;BME280;41218;55.700;38.270;2024-03-23T09:41:08;98310.00;;;4.26;70.85
55347;BME280;41218;55.700;38.270;2024-03-23T09:46:20;98325.94;;;4.44;71.48
55347;BME280;41218;55.700;38.270;2024-03-23T09:51:39;98298.75;;;4.31;71.39
55347;BME280;41218;55.700;38.270;2024-03-23T09:57:00;98292.78;;;4.26;71.24
55347;BME280;41218;55.700;38.270;2024-03-23T10:02:10;98318.16;;;4.46;71.42
55347;BME280;41218;55.700;38.270;2024-03-23T10:07:34;98288.06;;;4.22;71.74
55347;BME280;41218;55.700;38.270;2024-03-23T10:12:46;98320.97;;;4.49;71.01
55347;BME280;41218;55.700;38.270;2024-03-23T10:18:20;98293.50;;;4.42;71.86
55347;BME280;41218;55.700;38.270;2024-03-23T10:23:24;98293.25;;;4.51;71.25
55347;BME280;41218;55.700;38.270;2024-03-23T10:28:27;98237.22;;;4.21;71.38
55347;BME280;41218;55.700;38.270;2024-03-23T10:33:30;98265.31;;;4.41;71.42
55347;BME280;41218;55.700;38.270;2024-03-23T10:38:54;98244.78;;;4.28;71.48
55347;BME280;41218;55.700;38.270;2024-03-23T10:44:30;98289.75;;;4.54;71.82
55347;BME280;41218;55.700;38.270;2024-03-23T10:49:37;98232.16;;;4.20;71.38
55347;BME280;41218;55.700;38.270;2024-03-23T10:54:56;98274.50;;;4.53;71.65
55347;BME280;41218;55.700;38.270;2024-03-23T11:00:02;98276.06;;;4.54;71.72
55347;BME280;41218;55.700;38.270;2024-03-23T11:10:51;98263.06;;;4.47;72.38
55347;BME280;41218;55.700;38.270;2024-03-23T11:16:30;98275.44;;;4.60;72.07
55347;BME280;41218;55.700;38.270;2024-03-23T11:27:25;98256.63;;;4.59;71.82
55347;BME280;41218;55.700;38.270;2024-03-23T11:32:57;98209.22;;;4.28;72.17
55347;BME280;41218;55.700;38.270;2024-03-23T11:38:20;98236.19;;;4.53;73.02
55347;BME280;41218;55.700;38.270;2024-03-23T11:43:23;98250.81;;;4.64;72.28
55347;BME280;41218;55.700;38.270;2024-03-23T11:48:27;98247.00;;;4.69;71.89
55347;BME280;41218;55.700;38.270;2024-03-23T11:53:51;98207.56;;;4.47;72.63
55347;BME280;41218;55.700;38.270;2024-03-23T11:59:39;98220.72;;;4.64;72.47
55347;BME280;41218;55.700;38.270;2024-03-23T12:04:52;98219.94;;;4.64;72.28
55347;BME280;41218;55.700;38.270;2024-03-23T12:10:22;98238.53;;;4.77;72.57
55347;BME280;41218;55.700;38.270;2024-03-23T12:15:28;98214.03;;;4.61;72.18
55347;BME280;41218;55.700;38.270;2024-03-23T12:21:06;98228.16;;;4.64;72.65
55347;BME280;41218;55.700;38.270;2024-03-23T12:26:10;98195.00;;;4.42;72.29
55347;BME280;41218;55.700;38.270;2024-03-23T12:31:14;98195.00;;;4.42;72.18
55347;BME280;41218;55.700;38.270;2024-03-23T12:36:22;98196.56;;;4.43;72.09
55347;BME280;41218;55.700;38.270;2024-03-23T12:41:42;98234.41;;;4.64;72.17
55347;BME280;41218;55.700;38.270;2024-03-23T12:46:58;98211.50;;;4.49;72.85
55347;BME280;41218;55.700;38.270;2024-03-23T12:52:12;98229.25;;;4.59;72.81
55347;BME280;41218;55.700;38.270;2024-03-23T12:57:34;98197.25;;;4.36;72.67
55347;BME280;41218;55.700;38.270;2024-03-23T13:03:00;98227.78;;;4.65;72.74
55347;BME280;41218;55.700;38.270;2024-03-23T13:14:02;98217.91;;;4.57;72.72
55347;BME280;41218;55.700;38.270;2024-03-23T13:19:19;98181.13;;;4.31;72.82
55347;BME280;41218;55.700;38.270;2024-03-23T13:24:50;98160.22;;;4.19;73.33
55347;BME280;41218;55.700;38.270;2024-03-23T13:36:13;98222.47;;;4.49;73.05
55347;BME280;41218;55.700;38.270;2024-03-23T13:41:36;98149.88;;;4.06;72.74
55347;BME280;41218;55.700;38.270;2024-03-23T13:46:38;98216.47;;;4.40;73.02
55347;BME280;41218;55.700;38.270;2024-03-23T13:51:54;98216.88;;;4.42;72.90
55347;BME280;41218;55.700;38.270;2024-03-23T13:57:11;98212.56;;;4.41;73.20
55347;BME280;41218;55.700;38.270;2024-03-23T14:07:56;98167.16;;;4.13;73.08
55347;BME280;41218;55.700;38.270;2024-03-23T14:13:05;98162.13;;;4.15;72.75
55347;BME280;41218;55.700;38.270;2024-03-23T14:18:12;98199.16;;;4.36;73.44
55347;BME280;41218;55.700;38.270;2024-03-23T14:23:30;98160.56;;;4.14;73.01
55347;BME280;41218;55.700;38.270;2024-03-23T14:29:06;98178.72;;;4.26;74.01
55347;BME280;41218;55.700;38.270;2024-03-23T14:34:22;98197.59;;;4.35;73.27
55347;BME280;41218;55.700;38.270;2024-03-23T14:39:36;98174.28;;;4.18;73.37
55347;BME280;41218;55.700;38.270;2024-03-23T14:44:49;98155.38;;;4.09;73.55
55347;BME280;41218;55.700;38.270;2024-03-23T14:50:08;98192.06;;;4.31;73.39
55347;BME280;41218;55.700;38.270;2024-03-23T14:55:27;98190.50;;;4.30;73.75
55347;BME280;41218;55.700;38.270;2024-03-23T15:01:03;98154.16;;;4.07;73.80
55347;BME280;41218;55.700;38.270;2024-03-23T15:06:21;98159.22;;;4.05;74.06
55347;BME280;41218;55.700;38.270;2024-03-23T15:11:39;98157.25;;;4.05;73.78
55347;BME280;41218;55.700;38.270;2024-03-23T15:16:50;98164.25;;;4.03;73.91
55347;BME280;41218;55.700;38.270;2024-03-23T15:22:10;98170.16;;;4.05;73.92
55347;BME280;41218;55.700;38.270;2024-03-23T15:27:51;98163.78;;;3.97;74.32
55347;BME280;41218;55.700;38.270;2024-03-23T15:33:12;98164.19;;;3.99;74.21
55347;BME280;41218;55.700;38.270;2024-03-23T15:38:33;98180.72;;;4.06;74.04
55347;BME280;41218;55.700;38.270;2024-03-23T15:49:48;98175.50;;;3.97;74.58
55347;BME280;41218;55.700;38.270;2024-03-23T15:55:03;98175.09;;;3.95;74.46
55347;BME280;41218;55.700;38.270;2024-03-23T16:06:16;98142.69;;;3.74;74.77
55347;BME280;41218;55.700;38.270;2024-03-23T16:11:47;98196.22;;;3.98;74.73
55347;BME280;41218;55.700;38.270;2024-03-23T16:17:15;98216.34;;;4.10;74.19
55347;BME280;41218;55.700;38.270;2024-03-23T16:22:34;98206.72;;;3.96;74.53
55347;BME280;41218;55.700;38.270;2024-03-23T16:27:49;98211.69;;;3.91;74.81
55347;BME280;41218;55.700;38.270;2024-03-23T16:33:20;98206.59;;;3.89;74.79
55347;BME280;41218;55.700;38.270;2024-03-23T16:38:32;98220.03;;;3.98;74.52
55347;BME280;41218;55.700;38.270;2024-03-23T16:43:43;98217.94;;;3.91;74.66
55347;BME280;41218;55.700;38.270;2024-03-23T16:48:59;98223.84;;;3.93;74.63
55347;BME280;41218;55.700;38.270;2024-03-23T16:54:45;98212.72;;;3.83;74.59
55347;BME280;41218;55.700;38.270;2024-03-23T17:11:39;98248.44;;;3.93;74.85
55347;BME280;41218;55.700;38.270;2024-03-23T17:17:19;98240.69;;;3.95;75.28
55347;BME280;41218;55.700;38.270;2024-03-23T17:22:39;98258.06;;;4.07;74.87
55347;BME280;41218;55.700;38.270;2024-03-23T17:27:56;98203.91;;;3.70;74.64
55347;BME280;41218;55.700;38.270;2024-03-23T17:33:19;98245.72;;;3.93;74.93
55347;BME280;41218;55.700;38.270;2024-03-23T17:38:34;98260.97;;;3.94;74.81
55347;BME280;41218;55.700;38.270;2024-03-23T17:43:49;98271.38;;;4.08;74.91
55347;BME280;41218;55.700;38.270;2024-03-23T17:49:11;98266.09;;;3.96;74.88
55347;BME280;41218;55.700;38.270;2024-03-23T17:54:37;98253.00;;;3.86;75.18
55347;BME280;41218;55.700;38.270;2024-03-23T17:59:44;98260.81;;;3.87;75.29
55347;BME280;41218;55.700;38.270;2024-03-23T18:05:08;98280.53;;;3.96;74.95
55347;BME280;41218;55.700;38.270;2024-03-23T18:10:25;98249.69;;;3.76;75.06
55347;BME280;41218;55.700;38.270;2024-03-23T18:16:07;98322.25;;;4.13;75.87
55347;BME280;41218;55.700;38.270;2024-03-23T18:21:38;98312.06;;;4.10;75.12
55347;BME280;41218;55.700;38.270;2024-03-23T18:27:08;98283.50;;;3.88;75.46
55347;BME280;41218;55.700;38.270;2024-03-23T18:32:27;98294.06;;;3.89;75.64
55347;BME280;41218;55.700;38.270;2024-03-23T18:38:01;98314.28;;;4.04;75.49
55347;BME280;41218;55.700;38.270;2024-03-23T18:43:01;98326.84;;;4.09;75.30
55347;BME280;41218;55.700;38.270;2024-03-23T18:48:02;98331.19;;;4.10;75.61
55347;BME280;41218;55.700;38.270;2024-03-23T18:53:03;98322.47;;;4.04;75.55
55347;BME280;41218;55.700;38.270;2024-03-23T18:58:04;98339.00;;;4.11;75.20
55347;BME280;41218;55.700;38.270;2024-03-23T19:03:04;98341.38;;;4.13;75.27
55347;BME280;41218;55.700;38.270;2024-03-23T19:08:06;98354.28;;;4.12;75.29
55347;BME280;41218;55.700;38.270;2024-03-23T19:13:07;98343.50;;;4.00;75.16
55347;BME280;41218;55.700;38.270;2024-03-23T19:18:07;98338.22;;;3.91;75.14
55347;BME280;41218;55.700;38.270;2024-03-23T19:23:09;98353.84;;;3.91;74.82
55347;BME280;41218;55.700;38.270;2024-03-23T19:28:09;98343.03;;;3.78;74.42
55347;BME280;41218;55.700;38.270;2024-03-23T19:33:10;98360.22;;;3.79;74.65
55347;BME280;41218;55.700;38.270;2024-03-23T19:38:11;98358.94;;;3.73;73.98
55347;BME280;41218;55.700;38.270;2024-03-23T19:43:11;98378.50;;;3.75;73.81
55347;BME280;41218;55.700;38.270;2024-03-23T19:48:12;98377.50;;;3.64;73.78
55347;BME280;41218;55.700;38.270;2024-03-23T19:53:12;98374.44;;;3.49;73.32
55347;BME280;41218;55.700;38.270;2024-03-23T19:58:13;98397.09;;;3.50;73.02
55347;BME280;41218;55.700;38.270;2024-03-23T20:03:14;98389.00;;;3.37;73.00
55347;BME280;41218;55.700;38.270;2024-03-23T20:08:15;98398.50;;;3.44;72.78
55347;BME280;41218;55.700;38.270;2024-03-23T20:13:16;98382.06;;;3.24;72.71
55347;BME280;41218;55.700;38.270;2024-03-23T20:18:16;98391.06;;;3.25;72.71
55347;BME280;41218;55.700;38.270;2024-03-23T20:23:17;98383.31;;;3.11;72.82
55347;BME280;41218;55.700;38.270;2024-03-23T20:28:18;98406.81;;;3.15;72.58
55347;BME280;41218;55.700;38.270;2024-03-23T20:33:19;98417.03;;;3.18;72.34
55347;BME280;41218;55.700;38.270;2024-03-23T20:38:20;98399.59;;;3.07;72.88
55347;BME280;41218;55.700;38.270;2024-03-23T20:43:21;98387.09;;;3.06;73.26
55347;BME280;41218;55.700;38.270;2024-03-23T20:48:25;98406.47;;;3.17;73.36
55347;BME280;41218;55.700;38.270;2024-03-23T20:53:29;98407.25;;;3.17;73.83
55347;BME280;41218;55.700;38.270;2024-03-23T20:58:31;98407.69;;;3.19;73.86
55347;BME280;41218;55.700;38.270;2024-03-23T21:03:32;98403.84;;;3.20;74.02
55347;BME280;41218;55.700;38.270;2024-03-23T21:08:34;98416.06;;;3.27;74.50
55347;BME280;41218;55.700;38.270;2024-03-23T21:13:34;98423.53;;;3.30;74.54
55347;BME280;41218;55.700;38.270;2024-03-23T21:18:35;98426.72;;;3.32;74.08
55347;BME280;41218;55.700;38.270;2024-03-23T21:23:36;98392.53;;;3.22;74.25
55347;BME280;41218;55.700;38.270;2024-03-23T21:28:37;98403.91;;;3.24;74.49
55347;BME280;41218;55.700;38.270;2024-03-23T21:33:37;98417.44;;;3.36;74.47
55347;BME280;41218;55.700;38.270;2024-03-23T21:38:38;98420.63;;;3.38;74.69
55347;BME280;41218;55.700;38.270;2024-03-23T21:43:38;98418.31;;;3.40;74.49
55347;BME280;41218;55.700;38.270;2024-03-23T21:48:39;98427.25;;;3.37;75.13
55347;BME280;41218;55.700;38.270;2024-03-23T21:53:43;98436.31;;;3.41;74.97
55347;BME280;41218;55.700;38.270;2024-03-23T21:58:44;98429.78;;;3.30;74.85
55347;BME280;41218;55.700;38.270;2024-03-23T22:03:45;98446.00;;;3.39;74.58
55347;BME280;41218;55.700;38.270;2024-03-23T22:08:46;98423.34;;;3.38;75.11
55347;BME280;41218;55.700;38.270;2024-03-23T22:13:49;98436.47;;;3.49;75.08
55347;BME280;41218;55.700;38.270;2024-03-23T22:18:50;98439.56;;;3.47;75.00
55347;BME280;41218;55.700;38.270;2024-03-23T22:23:50;98434.88;;;3.48;75.30
55347;BME280;41218;55.700;38.270;2024-03-23T22:28:51;98411.00;;;3.45;75.34
55347;BME280;41218;55.700;38.270;2024-03-23T22:33:51;98408.28;;;3.45;75.44
55347;BME280;41218;55.700;38.270;2024-03-23T22:38:52;98421.03;;;3.56;75.52
55347;BME280;41218;55.700;38.270;2024-03-23T22:43:52;98434.34;;;3.58;75.27
55347;BME280;41218;55.700;38.270;2024-03-23T22:48:53;98412.06;;;3.40;75.23
55347;BME280;41218;55.700;38.270;2024-03-23T22:53:53;98446.06;;;3.58;75.59
55347;BME280;41218;55.700;38.270;2024-03-23T22:58:54;98438.25;;;3.57;75.60
55347;BME280;41218;55.700;38.270;2024-03-23T23:03:55;98442.09;;;3.56;75.39
55347;BME280;41218;55.700;38.270;2024-03-23T23:08:55;98440.97;;;3.57;75.61
55347;BME280;41218;55.700;38.270;2024-03-23T23:13:56;98440.97;;;3.57;75.95
55347;BME280;41218;55.700;38.270;2024-03-23T23:18:56;98407.78;;;3.39;75.92
55347;BME280;41218;55.700;38.270;2024-03-23T23:23:57;98438.50;;;3.52;75.71
55347;BME280;41218;55.700;38.270;2024-03-23T23:28:59;98432.59;;;3.50;75.72
55347;BME280;41218;55.700;38.270;2024-03-23T23:34:00;98423.53;;;3.46;76.02
55347;BME280;41218;55.700;38.270;2024-03-23T23:39:00;98440.88;;;3.53;75.87
55347;BME280;41218;55.700;38.270;2024-03-23T23:44:01;98447.22;;;3.57;75.52
55347;BME280;41218;55.700;38.270;2024-03-23T23:49:02;98431.28;;;3.44;75.49
55347;BME280;41218;55.700;38.270;2024-03-23T23:54:05;98434.47;;;3.46;75.77
55347;BME280;41218;55.700;38.270;2024-03-23T23:59:06;98438.41;;;3.48;76.01
